Time;durP1;ratioP1;P1;durP2;ratioP2;P2;SDS_P1;SDS_P2;PMS_P1;PMS_P2;Temp;Humidity;BMP_temperature;BMP_pressure;BME280_temperature;BME280_humidity;BME280_pressure;Samples;Min_cycle;Max_cycle;Signal;HPM_P1;HPM_P2
2022/08/31 00:07:40;;;;;;;12.5;11.2;;;;;;;16.32;76.69727;95349.54;;;;
2022/08/31 00:08:41;;;;;;;12.5;11.2;;;;;;;16.32;76.69727;95349.54;;;;
2022/08/31 00:09:41;;;;;;;12.5;11.2;;;;;;;16.32;76.69727;95349.54;;;;
2022/08/31 00:10:45;;;;;;;12.5;11.2;;;;;;;16.32;76.69727;95349.54;;;;
2022/08/31 00:11:45;;;;;;;12.5;11.2;;;;;;;16.32;76.69727;95349.54;;;;
2022/08/31 00:12:46;;;;;;;12.5;11.2;;;;;;;16.32;76.69727;95349.54;;;;
2022/08/31 00:13:47;;;;;;;12.5;11.2;;;;;;;16.32;76.69727;95349.54;;;;
2022/08/31 00:14:48;;;;;;;13;11.6;;;;;;;16.29;76.95508;95348.56;;;;
2022/08/31 00:15:49;;;;;;;13;11.6;;;;;;;16.29;76.95508;95348.56;;;;
2022/08/31 00:16:51;;;;;;;13;11.6;;;;;;;16.29;76.95508;95348.56;;;;
2022/08/31 00:17:51;;;;;;;13;11.6;;;;;;;16.29;76.95508;95348.56;;;;
2022/08/31 00:18:52;;;;;;;13;11.6;;;;;;;16.29;76.95508;95348.56;;;;
2022/08/31 00:19:53;;;;;;;13;11.6;;;;;;;16.29;76.95508;95348.56;;;;
2022/08/31 00:20:53;;;;;;;13;11.6;;;;;;;16.29;76.95508;95348.56;;;;
2022/08/31 00:21:54;;;;;;;13;11.6;;;;;;;16.29;76.95508;95348.56;;;;
2022/08/31 00:22:54;;;;;;;13;11.6;;;;;;;16.29;76.95508;95348.56;;;;
2022/08/31 00:23:55;;;;;;;13;11.6;;;;;;;16.29;76.95508;95348.56;;;;
2022/08/31 00:24:56;;;;;;;13;11.6;;;;;;;16.29;76.95508;95348.56;;;;
2022/08/31 00:25:56;;;;;;;14.05;11.05;;;;;;;16.32;77.26367;95372.21;;;;
2022/08/31 00:26:57;;;;;;;14.05;11.05;;;;;;;16.32;77.26367;95372.21;;;;
2022/08/31 00:27:57;;;;;;;14.05;11.05;;;;;;;16.32;77.26367;95372.21;;;;
2022/08/31 00:28:58;;;;;;;14.05;11.05;;;;;;;16.32;77.26367;95372.21;;;;
2022/08/31 00:29:58;;;;;;;14.05;11.05;;;;;;;16.32;77.26367;95372.21;;;;
2022/08/31 00:30:59;;;;;;;14.05;11.05;;;;;;;16.32;77.26367;95372.21;;;;
2022/08/31 00:31:59;;;;;;;14.05;11.05;;;;;;;16.32;77.26367;95372.21;;;;
2022/08/31 00:33:00;;;;;;;14.05;11.05;;;;;;;16.32;77.26367;95372.21;;;;
2022/08/31 00:34:02;;;;;;;14.05;11.05;;;;;;;16.32;77.26367;95372.21;;;;
2022/08/31 00:35:02;;;;;;;14.05;11.05;;;;;;;16.32;77.26367;95372.21;;;;
2022/08/31 00:36:04;;;;;;;11.95;10.85;;;;;;;16.26;77.54785;95361.99;;;;
2022/08/31 00:37:07;;;;;;;11.95;10.85;;;;;;;16.26;77.54785;95361.99;;;;
2022/08/31 00:38:08;;;;;;;11.95;10.85;;;;;;;16.26;77.54785;95361.99;;;;
2022/08/31 00:39:10;;;;;;;11.95;10.85;;;;;;;16.26;77.54785;95361.99;;;;
2022/08/31 00:40:10;;;;;;;11.95;10.85;;;;;;;16.26;77.54785;95361.99;;;;
2022/08/31 00:41:12;;;;;;;11.95;10.85;;;;;;;16.26;77.54785;95361.99;;;;
2022/08/31 00:42:13;;;;;;;11.95;10.85;;;;;;;16.26;77.54785;95361.99;;;;
2022/08/31 00:43:13;;;;;;;11.95;10.85;;;;;;;16.26;77.54785;95361.99;;;;
2022/08/31 00:44:33;;;;;;;11.95;10.85;;;;;;;16.26;77.54785;95361.99;;;;
2022/08/31 00:45:34;;;;;;;11.95;10.85;;;;;;;16.26;77.54785;95361.99;;;;
2022/08/31 00:46:34;;;;;;;11.95;10.85;;;;;;;16.26;77.54785;95361.99;;;;
2022/08/31 00:47:37;;;;;;;13.15;11;;;;;;;16.29;77.8252;95357.48;;;;
2022/08/31 00:48:37;;;;;;;13.15;11;;;;;;;16.29;77.8252;95357.48;;;;
2022/08/31 00:49:45;;;;;;;13.15;11;;;;;;;16.29;77.8252;95357.48;;;;
2022/08/31 00:50:47;;;;;;;13.15;11;;;;;;;16.29;77.8252;95357.48;;;;
2022/08/31 00:51:48;;;;;;;13.15;11;;;;;;;16.29;77.8252;95357.48;;;;
2022/08/31 00:52:55;;;;;;;13.15;11;;;;;;;16.29;77.8252;95357.48;;;;
2022/08/31 00:53:59;;;;;;;13.15;11;;;;;;;16.29;77.8252;95357.48;;;;
2022/08/31 00:55:00;;;;;;;13.15;11;;;;;;;16.29;77.8252;95357.48;;;;
2022/08/31 00:56:04;;;;;;;13.15;11;;;;;;;16.29;77.8252;95357.48;;;;
2022/08/31 00:57:07;;;;;;;13.15;11;;;;;;;16.29;77.8252;95357.48;;;;
2022/08/31 00:58:09;;;;;;;11.55;10.45;;;;;;;16.25;77.98047;95348.89;;;;
2022/08/31 00:59:12;;;;;;;11.55;10.45;;;;;;;16.25;77.98047;95348.89;;;;
2022/08/31 01:00:15;;;;;;;11.55;10.45;;;;;;;16.25;77.98047;95348.89;;;;
2022/08/31 01:01:19;;;;;;;11.55;10.45;;;;;;;16.25;77.98047;95348.89;;;;
2022/08/31 01:02:20;;;;;;;11.55;10.45;;;;;;;16.25;77.98047;95348.89;;;;
2022/08/31 01:03:21;;;;;;;11.55;10.45;;;;;;;16.25;77.98047;95348.89;;;;
2022/08/31 01:04:22;;;;;;;11.55;10.45;;;;;;;16.25;77.98047;95348.89;;;;
2022/08/31 01:05:23;;;;;;;11.55;10.45;;;;;;;16.25;77.98047;95348.89;;;;
2022/08/31 01:06:24;;;;;;;11.55;10.45;;;;;;;16.25;77.98047;95348.89;;;;
2022/08/31 01:07:26;;;;;;;11.55;10.45;;;;;;;16.25;77.98047;95348.89;;;;
2022/08/31 01:08:26;;;;;;;12.25;10.55;;;;;;;16.28;78.23828;95343.87;;;;
2022/08/31 01:09:27;;;;;;;12.25;10.55;;;;;;;16.28;78.23828;95343.87;;;;
2022/08/31 01:10:31;;;;;;;12.25;10.55;;;;;;;16.28;78.23828;95343.87;;;;
2022/08/31 01:11:36;;;;;;;12.25;10.55;;;;;;;16.28;78.23828;95343.87;;;;
2022/08/31 01:12:38;;;;;;;12.25;10.55;;;;;;;16.28;78.23828;95343.87;;;;
2022/08/31 01:13:40;;;;;;;12.25;10.55;;;;;;;16.28;78.23828;95343.87;;;;
2022/08/31 01:14:41;;;;;;;12.25;10.55;;;;;;;16.28;78.23828;95343.87;;;;
2022/08/31 01:15:42;;;;;;;12.25;10.55;;;;;;;16.28;78.23828;95343.87;;;;
2022/08/31 01:16:47;;;;;;;12.25;10.55;;;;;;;16.28;78.23828;95343.87;;;;
2022/08/31 01:17:51;;;;;;;12.25;10.55;;;;;;;16.28;78.23828;95343.87;;;;
2022/08/31 01:18:54;;;;;;;12.3;10.9;;;;;;;16.24;78.4375;95352.62;;;;
2022/08/31 01:19:57;;;;;;;12.3;10.9;;;;;;;16.24;78.4375;95352.62;;;;
2022/08/31 01:21:06;;;;;;;12.3;10.9;;;;;;;16.24;78.4375;95352.62;;;;
2022/08/31 01:22:19;;;;;;;12.3;10.9;;;;;;;16.24;78.4375;95352.62;;;;
2022/08/31 01:23:29;;;;;;;12.3;10.9;;;;;;;16.24;78.4375;95352.62;;;;
2022/08/31 01:24:33;;;;;;;12.3;10.9;;;;;;;16.24;78.4375;95352.62;;;;
2022/08/31 01:25:36;;;;;;;12.3;10.9;;;;;;;16.24;78.4375;95352.62;;;;
2022/08/31 01:26:38;;;;;;;12.3;10.9;;;;;;;16.24;78.4375;95352.62;;;;
2022/08/31 01:27:39;;;;;;;12.3;10.9;;;;;;;16.24;78.4375;95352.62;;;;
2022/08/31 01:28:40;;;;;;;12.3;10.9;;;;;;;16.24;78.4375;95352.62;;;;
2022/08/31 01:29:40;;;;;;;12.15;10.4;;;;;;;16.29;78.69629;95357.48;;;;
2022/08/31 01:30:41;;;;;;;12.15;10.4;;;;;;;16.29;78.69629;95357.48;;;;
2022/08/31 01:31:43;;;;;;;12.15;10.4;;;;;;;16.29;78.69629;95357.48;;;;
2022/08/31 01:32:46;;;;;;;12.15;10.4;;;;;;;16.29;78.69629;95357.48;;;;
2022/08/31 01:33:46;;;;;;;12.15;10.4;;;;;;;16.29;78.69629;95357.48;;;;
2022/08/31 01:34:48;;;;;;;12.15;10.4;;;;;;;16.29;78.69629;95357.48;;;;
2022/08/31 01:35:48;;;;;;;12.15;10.4;;;;;;;16.29;78.69629;95357.48;;;;
2022/08/31 01:36:49;;;;;;;12.15;10.4;;;;;;;16.29;78.69629;95357.48;;;;
2022/08/31 01:37:50;;;;;;;12.15;10.4;;;;;;;16.29;78.69629;95357.48;;;;
2022/08/31 01:38:52;;;;;;;12.15;10.4;;;;;;;16.29;78.69629;95357.48;;;;
2022/08/31 01:39:52;;;;;;;12.15;10.4;;;;;;;16.29;78.69629;95357.48;;;;
2022/08/31 01:40:53;;;;;;;11.75;10.6;;;;;;;16.26;78.86523;95355.31;;;;
2022/08/31 01:41:56;;;;;;;11.75;10.6;;;;;;;16.26;78.86523;95355.31;;;;
2022/08/31 01:42:57;;;;;;;11.75;10.6;;;;;;;16.26;78.86523;95355.31;;;;
2022/08/31 01:43:57;;;;;;;11.75;10.6;;;;;;;16.26;78.86523;95355.31;;;;
2022/08/31 01:44:58;;;;;;;11.75;10.6;;;;;;;16.26;78.86523;95355.31;;;;
2022/08/31 01:45:58;;;;;;;11.75;10.6;;;;;;;16.26;78.86523;95355.31;;;;
2022/08/31 01:47:00;;;;;;;11.75;10.6;;;;;;;16.26;78.86523;95355.31;;;;
2022/08/31 01:48:01;;;;;;;11.75;10.6;;;;;;;16.26;78.86523;95355.31;;;;
2022/08/31 01:49:02;;;;;;;11.75;10.6;;;;;;;16.26;78.86523;95355.31;;;;
2022/08/31 01:50:03;;;;;;;11.75;10.6;;;;;;;16.26;78.86523;95355.31;;;;
2022/08/31 01:51:04;;;;;;;12.5;11.2;;;;;;;16.22;78.9873;95347.13;;;;
2022/08/31 01:52:05;;;;;;;12.5;11.2;;;;;;;16.22;78.9873;95347.13;;;;
2022/08/31 01:53:05;;;;;;;12.5;11.2;;;;;;;16.22;78.9873;95347.13;;;;
2022/08/31 01:54:06;;;;;;;12.5;11.2;;;;;;;16.22;78.9873;95347.13;;;;
2022/08/31 01:55:07;;;;;;;12.5;11.2;;;;;;;16.22;78.9873;95347.13;;;;
2022/08/31 01:56:08;;;;;;;12.5;11.2;;;;;;;16.22;78.9873;95347.13;;;;
2022/08/31 01:57:10;;;;;;;12.5;11.2;;;;;;;16.22;78.9873;95347.13;;;;
2022/08/31 01:58:11;;;;;;;12.5;11.2;;;;;;;16.22;78.9873;95347.13;;;;
2022/08/31 01:59:12;;;;;;;12.5;11.2;;;;;;;16.22;78.9873;95347.13;;;;
2022/08/31 02:00:15;;;;;;;12.5;11.2;;;;;;;16.22;78.9873;95347.13;;;;
2022/08/31 02:01:16;;;;;;;12.5;11.2;;;;;;;16.22;78.9873;95347.13;;;;
2022/08/31 02:02:17;;;;;;;13.2;11.3;;;;;;;16.03;79.21484;95345.37;;;;
2022/08/31 02:03:18;;;;;;;13.2;11.3;;;;;;;16.03;79.21484;95345.37;;;;
2022/08/31 02:04:18;;;;;;;13.2;11.3;;;;;;;16.03;79.21484;95345.37;;;;
2022/08/31 02:05:22;;;;;;;13.2;11.3;;;;;;;16.03;79.21484;95345.37;;;;
2022/08/31 02:06:23;;;;;;;13.2;11.3;;;;;;;16.03;79.21484;95345.37;;;;
2022/08/31 02:07:24;;;;;;;13.2;11.3;;;;;;;16.03;79.21484;95345.37;;;;
2022/08/31 02:08:25;;;;;;;13.2;11.3;;;;;;;16.03;79.21484;95345.37;;;;
2022/08/31 02:09:25;;;;;;;13.2;11.3;;;;;;;16.03;79.21484;95345.37;;;;
2022/08/31 02:10:27;;;;;;;13.2;11.3;;;;;;;16.03;79.21484;95345.37;;;;
2022/08/31 02:11:28;;;;;;;13.2;11.3;;;;;;;16.03;79.21484;95345.37;;;;
2022/08/31 02:12:28;;;;;;;12.05;10.8;;;;;;;15.89;79.54004;95347.03;;;;
2022/08/31 02:13:29;;;;;;;12.05;10.8;;;;;;;15.89;79.54004;95347.03;;;;
2022/08/31 02:14:29;;;;;;;12.05;10.8;;;;;;;15.89;79.54004;95347.03;;;;
2022/08/31 02:15:30;;;;;;;12.05;10.8;;;;;;;15.89;79.54004;95347.03;;;;
2022/08/31 02:16:31;;;;;;;12.05;10.8;;;;;;;15.89;79.54004;95347.03;;;;
2022/08/31 02:17:32;;;;;;;12.05;10.8;;;;;;;15.89;79.54004;95347.03;;;;
2022/08/31 02:18:32;;;;;;;12.05;10.8;;;;;;;15.89;79.54004;95347.03;;;;
2022/08/31 02:19:34;;;;;;;12.05;10.8;;;;;;;15.89;79.54004;95347.03;;;;
2022/08/31 02:20:36;;;;;;;12.05;10.8;;;;;;;15.89;79.54004;95347.03;;;;
2022/08/31 02:21:36;;;;;;;12.05;10.8;;;;;;;15.89;79.54004;95347.03;;;;
2022/08/31 02:22:37;;;;;;;12.05;10.8;;;;;;;15.89;79.54004;95347.03;;;;
2022/08/31 02:23:37;;;;;;;12.8;11.55;;;;;;;15.73;79.74805;95337.29;;;;
2022/08/31 02:24:38;;;;;;;12.8;11.55;;;;;;;15.73;79.74805;95337.29;;;;
2022/08/31 02:25:39;;;;;;;12.8;11.55;;;;;;;15.73;79.74805;95337.29;;;;
2022/08/31 02:26:39;;;;;;;12.8;11.55;;;;;;;15.73;79.74805;95337.29;;;;
2022/08/31 02:27:40;;;;;;;12.8;11.55;;;;;;;15.73;79.74805;95337.29;;;;
2022/08/31 02:28:41;;;;;;;12.8;11.55;;;;;;;15.73;79.74805;95337.29;;;;
2022/08/31 02:29:42;;;;;;;12.8;11.55;;;;;;;15.73;79.74805;95337.29;;;;
2022/08/31 02:30:42;;;;;;;12.8;11.55;;;;;;;15.73;79.74805;95337.29;;;;
2022/08/31 02:31:44;;;;;;;12.8;11.55;;;;;;;15.73;79.74805;95337.29;;;;
2022/08/31 02:32:44;;;;;;;12.8;11.55;;;;;;;15.73;79.74805;95337.29;;;;
2022/08/31 02:33:45;;;;;;;12.75;11.6;;;;;;;15.68;80.07715;95349.19;;;;
2022/08/31 02:34:45;;;;;;;12.75;11.6;;;;;;;15.68;80.07715;95349.19;;;;
2022/08/31 02:35:46;;;;;;;12.75;11.6;;;;;;;15.68;80.07715;95349.19;;;;
2022/08/31 02:36:47;;;;;;;12.75;11.6;;;;;;;15.68;80.07715;95349.19;;;;
2022/08/31 02:37:47;;;;;;;12.75;11.6;;;;;;;15.68;80.07715;95349.19;;;;
2022/08/31 02:38:48;;;;;;;12.75;11.6;;;;;;;15.68;80.07715;95349.19;;;;
2022/08/31 02:39:48;;;;;;;12.75;11.6;;;;;;;15.68;80.07715;95349.19;;;;
2022/08/31 02:40:49;;;;;;;12.75;11.6;;;;;;;15.68;80.07715;95349.19;;;;
2022/08/31 02:41:50;;;;;;;12.75;11.6;;;;;;;15.68;80.07715;95349.19;;;;
2022/08/31 02:42:50;;;;;;;12.75;11.6;;;;;;;15.68;80.07715;95349.19;;;;
2022/08/31 02:43:51;;;;;;;12.75;11.6;;;;;;;15.68;80.07715;95349.19;;;;
2022/08/31 02:44:52;;;;;;;12.95;11.65;;;;;;;15.61;80.31543;95348.97;;;;
2022/08/31 02:45:52;;;;;;;12.95;11.65;;;;;;;15.61;80.31543;95348.97;;;;
2022/08/31 02:46:53;;;;;;;12.95;11.65;;;;;;;15.61;80.31543;95348.97;;;;
2022/08/31 02:47:53;;;;;;;12.95;11.65;;;;;;;15.61;80.31543;95348.97;;;;
2022/08/31 02:48:54;;;;;;;12.95;11.65;;;;;;;15.61;80.31543;95348.97;;;;
2022/08/31 02:49:54;;;;;;;12.95;11.65;;;;;;;15.61;80.31543;95348.97;;;;
2022/08/31 02:50:55;;;;;;;12.95;11.65;;;;;;;15.61;80.31543;95348.97;;;;
2022/08/31 02:52:03;;;;;;;12.95;11.65;;;;;;;15.61;80.31543;95348.97;;;;
2022/08/31 02:53:03;;;;;;;12.95;11.65;;;;;;;15.61;80.31543;95348.97;;;;
2022/08/31 02:54:04;;;;;;;12.95;11.65;;;;;;;15.61;80.31543;95348.97;;;;
2022/08/31 02:55:04;;;;;;;12.15;10.75;;;;;;;15.68;80.51172;95349.61;;;;
2022/08/31 02:56:06;;;;;;;12.15;10.75;;;;;;;15.68;80.51172;95349.61;;;;
2022/08/31 02:57:07;;;;;;;12.15;10.75;;;;;;;15.68;80.51172;95349.61;;;;
2022/08/31 02:58:07;;;;;;;12.15;10.75;;;;;;;15.68;80.51172;95349.61;;;;
2022/08/31 02:59:10;;;;;;;12.15;10.75;;;;;;;15.68;80.51172;95349.61;;;;
2022/08/31 03:00:10;;;;;;;12.15;10.75;;;;;;;15.68;80.51172;95349.61;;;;
2022/08/31 03:01:12;;;;;;;12.15;10.75;;;;;;;15.68;80.51172;95349.61;;;;
2022/08/31 03:02:12;;;;;;;12.15;10.75;;;;;;;15.68;80.51172;95349.61;;;;
2022/08/31 03:03:13;;;;;;;12.15;10.75;;;;;;;15.68;80.51172;95349.61;;;;
2022/08/31 03:04:15;;;;;;;12.15;10.75;;;;;;;15.68;80.51172;95349.61;;;;
2022/08/31 03:05:15;;;;;;;12.15;10.75;;;;;;;15.68;80.51172;95349.61;;;;
2022/08/31 03:06:17;;;;;;;11.95;10.75;;;;;;;15.71;80.61426;95349.52;;;;
2022/08/31 03:07:19;;;;;;;11.95;10.75;;;;;;;15.71;80.61426;95349.52;;;;
2022/08/31 03:08:19;;;;;;;11.95;10.75;;;;;;;15.71;80.61426;95349.52;;;;
2022/08/31 03:09:20;;;;;;;11.95;10.75;;;;;;;15.71;80.61426;95349.52;;;;
2022/08/31 03:10:20;;;;;;;11.95;10.75;;;;;;;15.71;80.61426;95349.52;;;;
2022/08/31 03:11:23;;;;;;;11.95;10.75;;;;;;;15.71;80.61426;95349.52;;;;
2022/08/31 03:12:24;;;;;;;11.95;10.75;;;;;;;15.71;80.61426;95349.52;;;;
2022/08/31 03:13:24;;;;;;;11.95;10.75;;;;;;;15.71;80.61426;95349.52;;;;
2022/08/31 03:14:25;;;;;;;11.95;10.75;;;;;;;15.71;80.61426;95349.52;;;;
2022/08/31 03:15:26;;;;;;;11.95;10.75;;;;;;;15.71;80.61426;95349.52;;;;
2022/08/31 03:16:27;;;;;;;12.9;11.45;;;;;;;15.81;80.74219;95352.87;;;;
2022/08/31 03:17:27;;;;;;;12.9;11.45;;;;;;;15.81;80.74219;95352.87;;;;
2022/08/31 03:18:28;;;;;;;12.9;11.45;;;;;;;15.81;80.74219;95352.87;;;;
2022/08/31 03:19:29;;;;;;;12.9;11.45;;;;;;;15.81;80.74219;95352.87;;;;
2022/08/31 03:20:29;;;;;;;12.9;11.45;;;;;;;15.81;80.74219;95352.87;;;;
2022/08/31 03:21:30;;;;;;;12.9;11.45;;;;;;;15.81;80.74219;95352.87;;;;
2022/08/31 03:22:30;;;;;;;12.9;11.45;;;;;;;15.81;80.74219;95352.87;;;;
2022/08/31 03:23:32;;;;;;;12.9;11.45;;;;;;;15.81;80.74219;95352.87;;;;
2022/08/31 03:24:33;;;;;;;12.9;11.45;;;;;;;15.81;80.74219;95352.87;;;;
2022/08/31 03:25:33;;;;;;;12.9;11.45;;;;;;;15.81;80.74219;95352.87;;;;
2022/08/31 03:26:34;;;;;;;12.9;11.45;;;;;;;15.81;80.74219;95352.87;;;;
2022/08/31 03:27:36;;;;;;;13.5;12.05;;;;;;;15.79;80.70605;95336.72;;;;
2022/08/31 03:28:37;;;;;;;13.5;12.05;;;;;;;15.79;80.70605;95336.72;;;;
2022/08/31 03:29:38;;;;;;;13.5;12.05;;;;;;;15.79;80.70605;95336.72;;;;
2022/08/31 03:30:38;;;;;;;13.5;12.05;;;;;;;15.79;80.70605;95336.72;;;;
2022/08/31 03:31:39;;;;;;;13.5;12.05;;;;;;;15.79;80.70605;95336.72;;;;
2022/08/31 03:32:40;;;;;;;13.5;12.05;;;;;;;15.79;80.70605;95336.72;;;;
2022/08/31 03:33:41;;;;;;;13.5;12.05;;;;;;;15.79;80.70605;95336.72;;;;
2022/08/31 03:34:42;;;;;;;13.5;12.05;;;;;;;15.79;80.70605;95336.72;;;;
2022/08/31 03:35:43;;;;;;;13.5;12.05;;;;;;;15.79;80.70605;95336.72;;;;
2022/08/31 03:36:44;;;;;;;13.5;12.05;;;;;;;15.79;80.70605;95336.72;;;;
2022/08/31 03:37:44;;;;;;;14.9;11.85;;;;;;;15.82;80.76563;95349.19;;;;
2022/08/31 03:38:45;;;;;;;14.9;11.85;;;;;;;15.82;80.76563;95349.19;;;;
2022/08/31 03:39:45;;;;;;;14.9;11.85;;;;;;;15.82;80.76563;95349.19;;;;
2022/08/31 03:40:46;;;;;;;14.9;11.85;;;;;;;15.82;80.76563;95349.19;;;;
2022/08/31 03:41:47;;;;;;;14.9;11.85;;;;;;;15.82;80.76563;95349.19;;;;
2022/08/31 03:42:47;;;;;;;14.9;11.85;;;;;;;15.82;80.76563;95349.19;;;;
2022/08/31 03:43:48;;;;;;;14.9;11.85;;;;;;;15.82;80.76563;95349.19;;;;
2022/08/31 03:44:49;;;;;;;14.9;11.85;;;;;;;15.82;80.76563;95349.19;;;;
2022/08/31 03:45:50;;;;;;;14.9;11.85;;;;;;;15.82;80.76563;95349.19;;;;
2022/08/31 03:46:54;;;;;;;14.9;11.85;;;;;;;15.82;80.76563;95349.19;;;;
2022/08/31 03:47:54;;;;;;;14.9;11.85;;;;;;;15.82;80.76563;95349.19;;;;
2022/08/31 03:48:55;;;;;;;14.3;12.1;;;;;;;15.77;80.97461;95352.95;;;;
2022/08/31 03:49:55;;;;;;;14.3;12.1;;;;;;;15.77;80.97461;95352.95;;;;
2022/08/31 03:50:56;;;;;;;14.3;12.1;;;;;;;15.77;80.97461;95352.95;;;;
2022/08/31 03:51:57;;;;;;;14.3;12.1;;;;;;;15.77;80.97461;95352.95;;;;
2022/08/31 03:52:57;;;;;;;14.3;12.1;;;;;;;15.77;80.97461;95352.95;;;;
2022/08/31 03:53:59;;;;;;;14.3;12.1;;;;;;;15.77;80.97461;95352.95;;;;
2022/08/31 03:54:59;;;;;;;14.3;12.1;;;;;;;15.77;80.97461;95352.95;;;;
2022/08/31 03:56:01;;;;;;;14.3;12.1;;;;;;;15.77;80.97461;95352.95;;;;
2022/08/31 03:57:04;;;;;;;14.3;12.1;;;;;;;15.77;80.97461;95352.95;;;;
2022/08/31 03:58:05;;;;;;;14.3;12.1;;;;;;;15.77;80.97461;95352.95;;;;
2022/08/31 03:59:06;;;;;;;13.65;12.35;;;;;;;15.8;81.13184;95363.26;;;;
2022/08/31 04:00:07;;;;;;;13.65;12.35;;;;;;;15.8;81.13184;95363.26;;;;
2022/08/31 04:01:09;;;;;;;13.65;12.35;;;;;;;15.8;81.13184;95363.26;;;;
2022/08/31 04:02:11;;;;;;;13.65;12.35;;;;;;;15.8;81.13184;95363.26;;;;
2022/08/31 04:03:12;;;;;;;13.65;12.35;;;;;;;15.8;81.13184;95363.26;;;;
2022/08/31 04:04:13;;;;;;;13.65;12.35;;;;;;;15.8;81.13184;95363.26;;;;
2022/08/31 04:05:14;;;;;;;13.65;12.35;;;;;;;15.8;81.13184;95363.26;;;;
2022/08/31 04:06:15;;;;;;;13.65;12.35;;;;;;;15.8;81.13184;95363.26;;;;
2022/08/31 04:07:17;;;;;;;13.65;12.35;;;;;;;15.8;81.13184;95363.26;;;;
2022/08/31 04:08:18;;;;;;;13.65;12.35;;;;;;;15.8;81.13184;95363.26;;;;
2022/08/31 04:09:20;;;;;;;13.65;12.35;;;;;;;15.8;81.13184;95363.26;;;;
2022/08/31 04:10:21;;;;;;;14;12.05;;;;;;;15.77;81.20215;95377.09;;;;
2022/08/31 04:11:22;;;;;;;14;12.05;;;;;;;15.77;81.20215;95377.09;;;;
2022/08/31 04:12:23;;;;;;;14;12.05;;;;;;;15.77;81.20215;95377.09;;;;
2022/08/31 04:13:24;;;;;;;14;12.05;;;;;;;15.77;81.20215;95377.09;;;;
2022/08/31 04:14:25;;;;;;;14;12.05;;;;;;;15.77;81.20215;95377.09;;;;
2022/08/31 04:15:25;;;;;;;14;12.05;;;;;;;15.77;81.20215;95377.09;;;;
2022/08/31 04:16:25;;;;;;;14;12.05;;;;;;;15.77;81.20215;95377.09;;;;
2022/08/31 04:17:26;;;;;;;14;12.05;;;;;;;15.77;81.20215;95377.09;;;;
2022/08/31 04:18:27;;;;;;;14;12.05;;;;;;;15.77;81.20215;95377.09;;;;
2022/08/31 04:19:27;;;;;;;14;12.05;;;;;;;15.77;81.20215;95377.09;;;;
2022/08/31 04:20:28;;;;;;;14;12.7;;;;;;;15.79;81.44727;95372.19;;;;
2022/08/31 04:21:29;;;;;;;14;12.7;;;;;;;15.79;81.44727;95372.19;;;;
2022/08/31 04:22:30;;;;;;;14;12.7;;;;;;;15.79;81.44727;95372.19;;;;
2022/08/31 04:23:31;;;;;;;14;12.7;;;;;;;15.79;81.44727;95372.19;;;;
2022/08/31 04:24:31;;;;;;;14;12.7;;;;;;;15.79;81.44727;95372.19;;;;
2022/08/31 04:25:32;;;;;;;14;12.7;;;;;;;15.79;81.44727;95372.19;;;;
2022/08/31 04:26:39;;;;;;;14;12.7;;;;;;;15.79;81.44727;95372.19;;;;
2022/08/31 04:27:41;;;;;;;14;12.7;;;;;;;15.79;81.44727;95372.19;;;;
2022/08/31 04:28:41;;;;;;;14;12.7;;;;;;;15.79;81.44727;95372.19;;;;
2022/08/31 04:29:42;;;;;;;14;12.7;;;;;;;15.79;81.44727;95372.19;;;;
2022/08/31 04:30:42;;;;;;;14;12.7;;;;;;;15.79;81.44727;95372.19;;;;
2022/08/31 04:31:43;;;;;;;14.6;12.4;;;;;;;15.8;81.54492;95374.34;;;;
2022/08/31 04:32:44;;;;;;;14.6;12.4;;;;;;;15.8;81.54492;95374.34;;;;
2022/08/31 04:33:44;;;;;;;14.6;12.4;;;;;;;15.8;81.54492;95374.34;;;;
2022/08/31 04:34:45;;;;;;;14.6;12.4;;;;;;;15.8;81.54492;95374.34;;;;
2022/08/31 04:35:45;;;;;;;14.6;12.4;;;;;;;15.8;81.54492;95374.34;;;;
2022/08/31 04:36:46;;;;;;;14.6;12.4;;;;;;;15.8;81.54492;95374.34;;;;
2022/08/31 04:37:46;;;;;;;14.6;12.4;;;;;;;15.8;81.54492;95374.34;;;;
2022/08/31 04:38:47;;;;;;;14.6;12.4;;;;;;;15.8;81.54492;95374.34;;;;
2022/08/31 04:39:49;;;;;;;14.6;12.4;;;;;;;15.8;81.54492;95374.34;;;;
2022/08/31 04:40:50;;;;;;;14.6;12.4;;;;;;;15.8;81.54492;95374.34;;;;
2022/08/31 04:41:50;;;;;;;14;12.45;;;;;;;15.87;81.73242;95373.13;;;;
2022/08/31 04:42:51;;;;;;;14;12.45;;;;;;;15.87;81.73242;95373.13;;;;
2022/08/31 04:43:52;;;;;;;14;12.45;;;;;;;15.87;81.73242;95373.13;;;;
2022/08/31 04:44:55;;;;;;;14;12.45;;;;;;;15.87;81.73242;95373.13;;;;
2022/08/31 04:45:55;;;;;;;14;12.45;;;;;;;15.87;81.73242;95373.13;;;;
2022/08/31 04:46:56;;;;;;;14;12.45;;;;;;;15.87;81.73242;95373.13;;;;
2022/08/31 04:47:57;;;;;;;14;12.45;;;;;;;15.87;81.73242;95373.13;;;;
2022/08/31 04:48:57;;;;;;;14;12.45;;;;;;;15.87;81.73242;95373.13;;;;
2022/08/31 04:49:58;;;;;;;14;12.45;;;;;;;15.87;81.73242;95373.13;;;;
2022/08/31 04:50:59;;;;;;;14;12.45;;;;;;;15.87;81.73242;95373.13;;;;
2022/08/31 04:52:04;;;;;;;14;12.45;;;;;;;15.87;81.73242;95373.13;;;;
2022/08/31 04:53:05;;;;;;;15.35;12.7;;;;;;;15.89;81.7793;95379.03;;;;
2022/08/31 04:54:05;;;;;;;15.35;12.7;;;;;;;15.89;81.7793;95379.03;;;;
2022/08/31 04:55:09;;;;;;;15.35;12.7;;;;;;;15.89;81.7793;95379.03;;;;
2022/08/31 04:56:13;;;;;;;15.35;12.7;;;;;;;15.89;81.7793;95379.03;;;;
2022/08/31 04:57:15;;;;;;;15.35;12.7;;;;;;;15.89;81.7793;95379.03;;;;
2022/08/31 04:58:19;;;;;;;15.35;12.7;;;;;;;15.89;81.7793;95379.03;;;;
2022/08/31 04:59:24;;;;;;;15.35;12.7;;;;;;;15.89;81.7793;95379.03;;;;
2022/08/31 05:00:26;;;;;;;15.35;12.7;;;;;;;15.89;81.7793;95379.03;;;;
2022/08/31 05:01:27;;;;;;;15.35;12.7;;;;;;;15.89;81.7793;95379.03;;;;
2022/08/31 05:02:31;;;;;;;15.35;12.7;;;;;;;15.89;81.7793;95379.03;;;;
2022/08/31 05:03:32;;;;;;;12.55;11.05;;;;;;;16.03;81.95508;95391.12;;;;
2022/08/31 05:04:32;;;;;;;12.55;11.05;;;;;;;16.03;81.95508;95391.12;;;;
2022/08/31 05:05:33;;;;;;;12.55;11.05;;;;;;;16.03;81.95508;95391.12;;;;
2022/08/31 05:06:36;;;;;;;12.55;11.05;;;;;;;16.03;81.95508;95391.12;;;;
2022/08/31 05:07:39;;;;;;;12.55;11.05;;;;;;;16.03;81.95508;95391.12;;;;
2022/08/31 05:08:40;;;;;;;12.55;11.05;;;;;;;16.03;81.95508;95391.12;;;;
2022/08/31 05:09:41;;;;;;;12.55;11.05;;;;;;;16.03;81.95508;95391.12;;;;
2022/08/31 05:10:42;;;;;;;12.55;11.05;;;;;;;16.03;81.95508;95391.12;;;;
2022/08/31 05:11:43;;;;;;;12.55;11.05;;;;;;;16.03;81.95508;95391.12;;;;
2022/08/31 05:12:44;;;;;;;12.55;11.05;;;;;;;16.03;81.95508;95391.12;;;;
2022/08/31 05:13:44;;;;;;;13.15;11.15;;;;;;;16.17;81.89453;95388.79;;;;
2022/08/31 05:14:46;;;;;;;13.15;11.15;;;;;;;16.17;81.89453;95388.79;;;;
2022/08/31 05:15:47;;;;;;;13.15;11.15;;;;;;;16.17;81.89453;95388.79;;;;
2022/08/31 05:16:47;;;;;;;13.15;11.15;;;;;;;16.17;81.89453;95388.79;;;;
2022/08/31 05:17:49;;;;;;;13.15;11.15;;;;;;;16.17;81.89453;95388.79;;;;
2022/08/31 05:18:49;;;;;;;13.15;11.15;;;;;;;16.17;81.89453;95388.79;;;;
2022/08/31 05:19:51;;;;;;;13.15;11.15;;;;;;;16.17;81.89453;95388.79;;;;
2022/08/31 05:20:51;;;;;;;13.15;11.15;;;;;;;16.17;81.89453;95388.79;;;;
2022/08/31 05:21:52;;;;;;;13.15;11.15;;;;;;;16.17;81.89453;95388.79;;;;
2022/08/31 05:22:52;;;;;;;13.15;11.15;;;;;;;16.17;81.89453;95388.79;;;;
2022/08/31 05:23:53;;;;;;;13.15;11.15;;;;;;;16.17;81.89453;95388.79;;;;
2022/08/31 05:24:55;;;;;;;12.1;10.85;;;;;;;16.38;81.87988;95396.06;;;;
2022/08/31 05:25:56;;;;;;;12.1;10.85;;;;;;;16.38;81.87988;95396.06;;;;
2022/08/31 05:26:56;;;;;;;12.1;10.85;;;;;;;16.38;81.87988;95396.06;;;;
2022/08/31 05:27:57;;;;;;;12.1;10.85;;;;;;;16.38;81.87988;95396.06;;;;
2022/08/31 05:28:57;;;;;;;12.1;10.85;;;;;;;16.38;81.87988;95396.06;;;;
2022/08/31 05:29:59;;;;;;;12.1;10.85;;;;;;;16.38;81.87988;95396.06;;;;
2022/08/31 05:31:00;;;;;;;12.1;10.85;;;;;;;16.38;81.87988;95396.06;;;;
2022/08/31 05:32:01;;;;;;;12.1;10.85;;;;;;;16.38;81.87988;95396.06;;;;
2022/08/31 05:33:02;;;;;;;12.1;10.85;;;;;;;16.38;81.87988;95396.06;;;;
2022/08/31 05:34:03;;;;;;;12.1;10.85;;;;;;;16.38;81.87988;95396.06;;;;
2022/08/31 05:35:04;;;;;;;12.1;10.85;;;;;;;16.38;81.87988;95396.06;;;;
2022/08/31 05:36:06;;;;;;;12.1;10.85;;;;;;;16.38;81.87988;95396.06;;;;
2022/08/31 05:37:07;;;;;;;12.1;10.85;;;;;;;16.38;81.87988;95396.06;;;;
2022/08/31 05:38:08;;;;;;;12.1;10.85;;;;;;;16.38;81.87988;95396.06;;;;
2022/08/31 05:39:10;;;;;;;12.1;10.85;;;;;;;16.38;81.87988;95396.06;;;;
2022/08/31 05:40:12;;;;;;;12.1;10.85;;;;;;;16.38;81.87988;95396.06;;;;
2022/08/31 05:41:13;;;;;;;12.1;10.85;;;;;;;16.38;81.87988;95396.06;;;;
2022/08/31 05:42:14;;;;;;;12.1;10.85;;;;;;;16.38;81.87988;95396.06;;;;
2022/08/31 05:43:14;;;;;;;12.1;10.85;;;;;;;16.38;81.87988;95396.06;;;;
2022/08/31 05:44:15;;;;;;;12.1;10.85;;;;;;;16.38;81.87988;95396.06;;;;
2022/08/31 05:45:17;;;;;;;12.1;10.85;;;;;;;16.38;81.87988;95396.06;;;;
2022/08/31 05:46:18;;;;;;;13.35;11.95;;;;;;;16.68;81.78125;95399.31;;;;
2022/08/31 05:47:18;;;;;;;13.35;11.95;;;;;;;16.68;81.78125;95399.31;;;;
2022/08/31 05:48:19;;;;;;;13.35;11.95;;;;;;;16.68;81.78125;95399.31;;;;
2022/08/31 05:49:20;;;;;;;13.35;11.95;;;;;;;16.68;81.78125;95399.31;;;;
2022/08/31 05:50:20;;;;;;;13.35;11.95;;;;;;;16.68;81.78125;95399.31;;;;
2022/08/31 05:51:21;;;;;;;13.35;11.95;;;;;;;16.68;81.78125;95399.31;;;;